Time;durP1;ratioP1;P1;durP2;ratioP2;P2;SDS_P1;SDS_P2;PMS_P1;PMS_P2;Temp;Humidity;BMP_temperature;BMP_pressure;BME280_temperature;BME280_humidity;BME280_pressure;Samples;Min_cycle;Max_cycle;Signal;HPM_P1;HPM_P2
2022/11/27 00:01:45;;;;;;;21.40;5.30;;;6.50;99.90;;;;;;4232959;28;20487;-87
2022/11/27 00:03:48;;;;;;;16.08;3.33;;;6.50;99.90;;;;;;4216288;28;20139;-86
2022/11/27 00:05:57;;;;;;;14.15;3.63;;;6.50;99.90;;;;;;4251124;27;20399;-86
2022/11/27 00:07:57;;;;;;;;;;;6.60;99.90;;;;;;4251531;27;20040;-85
2022/11/27 00:09:58;;;;;;;23.92;5.03;;;6.50;99.90;;;;;;4233017;28;19930;-85
2022/11/27 00:11:59;;;;;;;14.43;3.78;;;6.50;99.90;;;;;;4251325;27;20042;-86
2022/11/27 00:14:01;;;;;;;12.20;4.50;;;6.50;99.90;;;;;;4233070;28;20164;-86
2022/11/27 00:16:04;;;;;;;16.90;4.00;;;6.50;99.90;;;;;;4250820;27;20202;-85
2022/11/27 00:18:04;;;;;;;25.52;4.50;;;6.50;99.90;;;;;;4232633;28;20185;-85
2022/11/27 00:20:07;;;;;;;10.98;3.60;;;6.50;99.90;;;;;;4250769;27;20039;-85
2022/11/27 00:22:08;;;;;;;15.13;3.78;;;6.40;99.90;;;;;;4232163;28;20096;-86
2022/11/27 00:24:10;;;;;;;17.17;4.07;;;6.50;99.90;;;;;;4215386;28;20691;-85
2022/11/27 00:26:11;;;;;;;16.40;3.30;;;6.40;99.90;;;;;;4250415;27;20479;-86
2022/11/27 00:28:13;;;;;;;16.05;4.70;;;6.40;99.90;;;;;;4232743;28;20109;-86
2022/11/27 00:30:14;;;;;;;13.48;3.78;;;6.40;99.90;;;;;;4215422;28;20048;-85
2022/11/27 00:32:15;;;;;;;11.07;4.10;;;6.40;99.90;;;;;;4232685;28;20050;-86
2022/11/27 00:34:16;;;;;;;9.80;4.20;;;6.30;99.90;;;;;;4232214;28;20052;-86
2022/11/27 00:36:16;;;;;;;10.73;4.45;;;6.40;99.90;;;;;;4250918;27;20043;-86
2022/11/27 00:38:19;;;;;;;23.77;4.88;;;6.30;99.90;;;;;;4251367;27;20057;-86
2022/11/27 00:40:19;;;;;;;17.98;3.17;;;6.30;99.90;;;;;;4232560;28;20499;-85
2022/11/27 00:42:20;;;;;;;12.77;3.72;;;6.30;99.90;;;;;;4232493;28;20055;-86
2022/11/27 00:44:21;;;;;;;13.20;4.10;;;6.30;99.90;;;;;;4250385;27;20051;-86
2022/11/27 00:46:24;;;;;;;19.48;3.67;;;6.40;99.90;;;;;;4251033;27;20126;-86
2022/11/27 00:48:26;;;;;;;13.73;4.30;;;6.30;99.90;;;;;;4250940;27;20039;-86
2022/11/27 00:50:30;;;;;;;11.45;4.25;;;6.30;99.90;;;;;;4232044;28;20070;-86
2022/11/27 00:52:31;;;;;;;12.75;4.53;;;6.30;99.90;;;;;;4232126;28;20087;-86
2022/11/27 00:54:32;;;;;;;25.85;4.00;;;6.30;99.90;;;;;;4231534;28;20479;-86
2022/11/27 00:56:36;;;;;;;14.82;4.80;;;6.30;99.90;;;;;;4250758;27;20046;-86
2022/11/27 00:58:36;;;;;;;19.13;3.97;;;6.30;99.90;;;;;;4232094;28;20039;-86
2022/11/27 01:00:37;;;;;;;13.93;3.78;;;6.30;99.90;;;;;;4215810;28;20050;-86
2022/11/27 01:02:38;;;;;;;14.68;4.00;;;6.30;99.90;;;;;;4250581;27;20402;-86
2022/11/27 01:04:39;;;;;;;13.40;3.85;;;6.30;99.90;;;;;;4232042;28;20573;-85
2022/11/27 01:06:43;;;;;;;9.73;4.50;;;6.30;99.90;;;;;;4232929;28;20431;-86
2022/11/27 01:08:45;;;;;;;12.15;3.67;;;6.20;99.90;;;;;;4215687;28;20052;-86
2022/11/27 01:10:57;;;;;;;20.75;4.03;;;6.20;99.90;;;;;;4232079;28;20120;-86
2022/11/27 01:12:58;;;;;;;17.02;3.70;;;6.20;99.90;;;;;;4233000;28;20051;-86
2022/11/27 01:14:59;;;;;;;16.33;4.18;;;6.20;99.90;;;;;;4215889;28;20551;-86
2022/11/27 01:17:00;;;;;;;15.25;4.28;;;6.20;99.90;;;;;;4251362;27;20398;-86
2022/11/27 01:19:02;;;;;;;15.20;3.88;;;6.20;99.90;;;;;;4216082;28;20067;-86
2022/11/27 01:21:04;;;;;;;16.20;4.75;;;6.20;99.90;;;;;;4252327;27;20054;-85
2022/11/27 01:23:06;;;;;;;11.40;3.47;;;6.20;99.90;;;;;;4218349;28;20047;-86
2022/11/27 01:25:07;;;;;;;16.23;4.25;;;6.20;99.90;;;;;;4255760;27;20039;-85
2022/11/27 01:27:15;;;;;;;11.85;3.78;;;6.20;99.90;;;;;;4223889;28;20113;-86
2022/11/27 01:29:16;;;;;;;11.68;3.53;;;6.20;99.90;;;;;;4223240;28;20565;-85
2022/11/27 01:31:19;;;;;;;14.00;4.55;;;6.20;99.90;;;;;;4240599;28;20142;-86
2022/11/27 01:33:22;;;;;;;12.02;4.15;;;6.10;99.90;;;;;;4225187;28;20044;-86
2022/11/27 01:35:22;;;;;;;17.05;4.50;;;6.10;99.90;;;;;;4226626;28;20108;-86
2022/11/27 01:37:23;;;;;;;14.80;4.75;;;6.10;99.90;;;;;;4259735;27;20043;-87
2022/11/27 01:39:30;;;;;;;12.43;4.07;;;6.10;99.90;;;;;;4257978;27;20045;-85
2022/11/27 01:41:34;;;;;;;12.00;3.83;;;6.90;99.90;;;;;;4251784;27;20045;-86
2022/11/27 01:43:41;;;;;;;16.83;4.03;;;6.10;99.90;;;;;;4216241;28;20082;-86
2022/11/27 01:45:44;;;;;;;10.13;4.50;;;6.10;99.90;;;;;;4251825;27;20035;-88
2022/11/27 01:47:59;;;;;;;11.40;3.60;;;6.10;99.90;;;;;;4215787;28;20551;-85
2022/11/27 01:50:11;;;;;;;12.27;4.18;;;6.10;99.90;;;;;;4249950;27;20085;-85
2022/11/27 01:52:21;;;;;;;19.33;3.78;;;4.90;99.90;;;;;;4231654;28;20478;-85
2022/11/27 01:54:24;;;;;;;12.85;4.13;;;6.10;99.90;;;;;;4231477;28;20500;-86
2022/11/27 01:56:27;;;;;;;8.18;3.47;;;6.00;99.90;;;;;;4231111;28;20499;-85
2022/11/27 01:58:29;;;;;;;18.83;5.35;;;6.10;99.90;;;;;;4249062;27;20050;-86
2022/11/27 02:00:31;;;;;;;11.15;3.40;;;6.00;99.90;;;;;;4214050;28;20119;-85
2022/11/27 02:02:32;;;;;;;11.02;3.50;;;6.10;99.90;;;;;;4214538;28;20052;-85
2022/11/27 02:04:33;;;;;;;10.52;3.35;;;6.10;99.90;;;;;;4230918;28;20388;-85
2022/11/27 02:06:35;;;;;;;9.45;3.13;;;6.10;99.90;;;;;;4249017;27;20039;-85
2022/11/27 02:08:37;;;;;;;18.27;3.67;;;6.00;99.90;;;;;;4249298;27;20555;-85
2022/11/27 02:10:58;;;;;;;13.18;3.97;;;6.00;99.90;;;;;;4214069;28;20130;-86
2022/11/27 02:13:08;;;;;;;13.07;3.85;;;6.00;99.90;;;;;;4214392;28;20058;-85
2022/11/27 02:15:31;;;;;;;11.00;3.80;;;6.00;99.90;;;;;;4248912;27;20070;-85
2022/11/27 02:17:46;;;;;;;11.15;3.60;;;6.00;99.90;;;;;;4231046;28;20633;-85
2022/11/27 02:20:10;;;;;;;11.85;3.92;;;6.00;99.90;;;;;;4248930;27;20051;-87
2022/11/27 02:22:37;;;;;;;15.98;3.92;;;6.00;99.90;;;;;;4249080;27;20487;-86
2022/11/27 02:24:47;;;;;;;7.32;3.10;;;6.00;99.90;;;;;;4248850;27;20043;-86
2022/11/27 02:26:53;;;;;;;15.20;3.90;;;6.00;99.90;;;;;;4249102;27;20065;-86
2022/11/27 02:29:07;;;;;;;11.18;3.30;;;6.00;99.90;;;;;;4214077;28;20083;-86
2022/11/27 02:31:46;;;;;;;13.55;3.33;;;6.00;99.90;;;;;;4248754;27;20043;-86
2022/11/27 02:33:52;;;;;;;15.77;3.30;;;6.00;99.90;;;;;;4227968;28;20055;-86
2022/11/27 02:36:06;;;;;;;12.05;3.85;;;6.00;99.90;;;;;;4248805;27;20273;-86
2022/11/27 02:38:18;;;;;;;14.18;3.30;;;6.00;99.90;;;;;;4248961;27;20096;-86
2022/11/27 02:40:41;;;;;;;12.70;3.90;;;6.10;99.90;;;;;;4230640;28;20089;-86
2022/11/27 02:42:48;;;;;;;17.38;4.05;;;6.00;99.90;;;;;;4248117;27;20050;-86
2022/11/27 02:45:09;;;;;;;10.85;4.20;;;6.10;99.90;;;;;;4230449;28;20515;-86
2022/11/27 02:47:11;;;;;;;14.07;3.78;;;6.10;99.90;;;;;;4230700;28;20127;-86
2022/11/27 02:49:17;;;;;;;13.70;4.93;;;6.10;99.90;;;;;;4230212;28;20055;-86
2022/11/27 02:51:34;;;;;;;18.98;3.95;;;6.60;99.90;;;;;;4230195;28;20612;-86
2022/11/27 02:53:44;;;;;;;15.32;4.05;;;6.10;99.90;;;;;;4248384;28;20062;-86
2022/11/27 02:55:47;;;;;;;11.55;3.05;;;6.10;99.90;;;;;;4214769;28;20055;-86
2022/11/27 02:57:52;;;;;;;19.80;4.60;;;6.10;99.90;;;;;;4213738;28;20098;-86
2022/11/27 02:59:56;;;;;;;10.43;4.40;;;6.10;99.90;;;;;;4231783;28;20416;-86
2022/11/27 03:02:02;;;;;;;12.10;2.95;;;6.20;99.90;;;;;;4231521;28;20509;-86
2022/11/27 03:04:08;;;;;;;12.48;3.15;;;6.20;99.90;;;;;;4231238;28;20051;-86
2022/11/27 03:06:13;;;;;;;10.82;3.50;;;6.30;99.90;;;;;;4231480;28;20054;-86
2022/11/27 03:08:29;;;;;;;14.20;3.42;;;6.20;99.90;;;;;;4213383;28;20054;-86
2022/11/27 03:10:49;;;;;;;14.30;3.70;;;6.20;99.90;;;;;;4231024;28;20428;-86
2022/11/27 03:12:50;;;;;;;13.82;3.30;;;6.30;99.90;;;;;;4195972;28;20397;-86
2022/11/27 03:14:51;;;;;;;9.75;3.47;;;6.30;99.90;;;;;;4196615;28;20056;-85
2022/11/27 03:17:14;;;;;;;12.77;4.07;;;6.30;99.90;;;;;;4231014;28;20132;-86
2022/11/27 03:19:24;;;;;;;13.15;3.35;;;6.30;99.90;;;;;;4213035;28;20055;-86
2022/11/27 03:21:27;;;;;;;12.43;3.33;;;6.30;99.90;;;;;;4213065;28;20052;-86
2022/11/27 03:23:28;;;;;;;11.10;3.97;;;6.20;99.90;;;;;;4213443;28;20099;-86
2022/11/27 03:25:30;;;;;;;14.93;3.60;;;6.30;99.90;;;;;;4213054;28;20116;-86
2022/11/27 03:27:37;;;;;;;16.27;3.95;;;6.30;99.90;;;;;;4212456;28;20455;-86
2022/11/27 03:29:41;;;;;;;8.70;3.10;;;6.60;99.90;;;;;;4212720;28;20159;-85
2022/11/27 03:31:43;;;;;;;9.77;3.97;;;6.30;99.90;;;;;;4231128;28;20039;-85
2022/11/27 03:33:45;;;;;;;13.40;3.90;;;6.30;99.90;;;;;;4212961;28;20154;-85
2022/11/27 03:35:47;;;;;;;15.25;3.35;;;6.30;99.90;;;;;;4213340;28;20048;-85
2022/11/27 03:37:50;;;;;;;13.30;3.15;;;6.30;99.90;;;;;;4212448;28;20051;-86
2022/11/27 03:39:52;;;;;;;9.38;3.90;;;6.30;99.90;;;;;;4212789;28;20048;-85
2022/11/27 03:42:04;;;;;;;11.40;3.40;;;6.30;99.90;;;;;;4213089;28;20119;-85
2022/11/27 03:44:11;;;;;;;10.25;3.35;;;6.30;99.90;;;;;;4212575;28;20051;-86
2022/11/27 03:46:27;;;;;;;9.75;4.15;;;6.30;99.90;;;;;;4212657;28;20051;-85
2022/11/27 03:49:17;;;;;;;11.27;3.38;;;6.30;99.90;;;;;;4230637;28;20108;-86
2022/11/27 03:51:40;;;;;;;9.35;3.05;;;6.30;99.90;;;;;;4129542;28;20487;-86
2022/11/27 03:53:57;;;;;;;6.28;2.42;;;6.30;99.90;;;;;;4199246;28;20059;-86
2022/11/27 03:56:21;;;;;;;11.63;2.88;;;6.30;99.90;;;;;;4233971;28;20043;-86
2022/11/27 03:58:27;;;;;;;12.75;3.90;;;6.40;99.90;;;;;;4215933;28;20048;-85
2022/11/27 04:00:33;;;;;;;8.73;3.20;;;6.40;99.90;;;;;;4198807;28;20071;-86
2022/11/27 04:02:46;;;;;;;13.10;3.22;;;6.40;99.90;;;;;;4215980;28;20052;-86
2022/11/27 04:04:47;;;;;;;8.20;2.38;;;6.40;99.90;;;;;;4215835;28;20043;-87
2022/11/27 04:06:48;;;;;;;7.75;2.92;;;6.40;99.90;;;;;;4215556;28;20051;-86
2022/11/27 04:08:49;;;;;;;8.80;2.83;;;6.40;99.90;;;;;;4199140;28;20101;-86
2022/11/27 04:10:50;;;;;;;11.35;3.22;;;6.40;99.90;;;;;;4215153;28;20093;-86
2022/11/27 04:12:51;;;;;;;12.05;4.05;;;6.30;99.90;;;;;;4199005;28;20060;-86
2022/11/27 04:14:52;;;;;;;12.98;2.83;;;6.30;99.90;;;;;;4233227;28;20414;-86
2022/11/27 04:16:52;;;;;;;14.73;4.13;;;6.30;99.90;;;;;;4215464;28;20044;-87
2022/11/27 04:18:54;;;;;;;11.50;3.75;;;6.30;99.90;;;;;;4233497;28;20053;-86
2022/11/27 04:20:56;;;;;;;20.60;4.63;;;6.20;99.90;;;;;;4215227;28;20438;-86
2022/11/27 04:22:57;;;;;;;12.18;4.20;;;6.20;99.90;;;;;;4233864;28;20514;-86
2022/11/27 04:24:58;;;;;;;12.35;3.70;;;6.10;99.90;;;;;;4214875;28;20048;-86
2022/11/27 04:27:00;;;;;;;20.55;5.22;;;6.10;99.90;;;;;;4215585;28;20567;-86
2022/11/27 04:29:02;;;;;;;18.35;4.07;;;6.10;99.90;;;;;;4215613;28;20087;-86
2022/11/27 04:31:04;;;;;;;9.18;3.45;;;6.00;99.90;;;;;;4215579;28;20127;-85
2022/11/27 04:33:05;;;;;;;7.93;3.47;;;6.00;99.90;;;;;;4233570;28;20040;-86
2022/11/27 04:35:06;;;;;;;9.18;3.78;;;6.10;99.90;;;;;;4214799;28;20044;-86
2022/11/27 04:37:08;;;;;;;12.73;2.95;;;6.00;99.90;;;;;;4215123;28;20478;-86
2022/11/27 04:39:09;;;;;;;7.57;3.45;;;5.90;99.90;;;;;;4232514;28;20473;-86
2022/11/27 04:41:09;;;;;;;9.38;3.05;;;5.90;99.90;;;;;;4232770;28;20043;-86
2022/11/27 04:43:10;;;;;;;11.90;3.80;;;6.10;99.90;;;;;;4233803;28;20048;-86
2022/11/27 04:45:13;;;;;;;19.85;4.95;;;5.90;99.90;;;;;;4233753;28;20078;-86
2022/11/27 04:47:13;;;;;;;11.38;2.88;;;5.90;99.90;;;;;;4201584;28;20481;-86
2022/11/27 04:49:14;;;;;;;12.48;3.30;;;5.80;99.90;;;;;;4200109;28;20057;-87
2022/11/27 04:51:15;;;;;;;12.90;3.30;;;5.80;99.90;;;;;;4235642;28;20056;-86
2022/11/27 04:53:16;;;;;;;10.55;3.47;;;5.80;99.90;;;;;;4200555;28;20048;-86
2022/11/27 04:55:16;;;;;;;10.05;3.65;;;5.80;99.90;;;;;;4237659;27;20042;-86
2022/11/27 04:57:19;;;;;;;8.80;3.13;;;5.80;99.90;;;;;;4233785;28;20503;-86
2022/11/27 04:59:22;;;;;;;10.43;2.72;;;5.80;99.90;;;;;;4237428;28;20541;-85
2022/11/27 05:01:23;;;;;;;9.88;3.47;;;5.90;99.90;;;;;;4232626;28;20108;-85
2022/11/27 05:03:24;;;;;;;11.63;2.85;;;5.80;99.90;;;;;;4232859;28;20491;-85
2022/11/27 05:05:25;;;;;;;11.35;2.90;;;5.90;99.90;;;;;;4232330;28;20035;-85
2022/11/27 05:07:26;;;;;;;13.80;3.50;;;5.90;99.90;;;;;;4231756;28;20046;-85
2022/11/27 05:09:26;;;;;;;15.00;3.17;;;5.90;99.90;;;;;;4232491;28;20392;-85
2022/11/27 05:11:29;;;;;;;7.25;2.60;;;5.90;99.90;;;;;;4232161;28;20036;-85
2022/11/27 05:13:30;;;;;;;8.18;2.70;;;5.90;99.90;;;;;;4232223;28;20114;-84
2022/11/27 05:15:31;;;;;;;5.68;2.42;;;5.90;99.90;;;;;;4214516;28;20492;-86
2022/11/27 05:17:33;;;;;;;10.80;3.40;;;5.90;99.90;;;;;;4231681;28;20051;-86
2022/11/27 05:19:34;;;;;;;12.23;2.92;;;5.90;99.90;;;;;;4230919;28;20427;-86
2022/11/27 05:21:34;;;;;;;6.07;3.28;;;5.90;99.90;;;;;;4231031;28;20051;-86
2022/11/27 05:23:35;;;;;;;9.65;2.65;;;5.90;99.90;;;;;;4232236;28;20039;-86
2022/11/27 05:25:36;;;;;;;5.90;2.58;;;5.80;99.90;;;;;;4231151;28;20054;-86
2022/11/27 05:27:37;;;;;;;10.32;2.75;;;5.80;99.90;;;;;;4232200;28;20563;-86
2022/11/27 05:29:39;;;;;;;10.85;2.83;;;5.80;99.90;;;;;;4231269;28;20035;-86
2022/11/27 05:31:41;;;;;;;7.40;3.08;;;5.80;99.90;;;;;;4232221;28;20075;-86
2022/11/27 05:33:42;;;;;;;12.65;2.80;;;5.80;99.90;;;;;;4230794;28;20509;-86
2022/11/27 05:35:44;;;;;;;10.63;2.75;;;5.80;99.90;;;;;;4230447;28;20051;-86
2022/11/27 05:37:46;;;;;;;12.27;2.88;;;5.70;99.90;;;;;;4231614;27;20044;-86
2022/11/27 05:39:47;;;;;;;9.75;3.40;;;5.70;99.90;;;;;;4231772;28;20043;-86
2022/11/27 05:41:49;;;;;;;10.63;3.13;;;5.70;99.90;;;;;;4224649;28;20039;-85
2022/11/27 05:43:51;;;;;;;12.45;2.78;;;5.70;99.90;;;;;;4197218;28;20044;-86
2022/11/27 05:45:52;;;;;;;12.98;2.80;;;5.60;99.90;;;;;;4214414;28;20044;-86
2022/11/27 05:47:54;;;;;;;7.82;2.70;;;5.60;99.90;;;;;;4197004;28;20053;-86
2022/11/27 05:49:55;;;;;;;14.95;5.40;;;5.60;99.90;;;;;;4232023;28;20048;-86
2022/11/27 05:51:57;;;;;;;10.55;2.83;;;5.60;99.90;;;;;;4214373;28;20393;-86
2022/11/27 05:53:57;;;;;;;12.98;3.17;;;5.60;99.90;;;;;;4232386;28;20036;-86
2022/11/27 05:56:03;;;;;;;9.35;2.95;;;5.50;99.90;;;;;;4214296;28;20104;-86
2022/11/27 05:58:04;;;;;;;9.27;2.97;;;5.50;99.90;;;;;;4197147;28;20524;-86
2022/11/27 06:00:06;;;;;;;7.68;2.80;;;5.50;99.90;;;;;;4218201;28;20047;-86
2022/11/27 06:02:08;;;;;;;12.57;4.07;;;5.50;99.90;;;;;;4232487;28;20047;-86
2022/11/27 06:04:09;;;;;;;14.80;2.95;;;5.50;99.90;;;;;;4232695;28;20028;-86
2022/11/27 06:06:15;;;;;;;13.85;3.30;;;5.50;99.90;;;;;;4197449;28;20115;-86
2022/11/27 06:08:16;;;;;;;12.82;3.30;;;5.50;99.90;;;;;;4214463;28;20051;-86
2022/11/27 06:10:17;;;;;;;10.88;3.25;;;5.50;99.90;;;;;;4213694;28;20047;-86
2022/11/27 06:12:20;;;;;;;9.13;2.72;;;5.50;99.90;;;;;;4214152;28;20083;-86
2022/11/27 06:14:22;;;;;;;6.60;2.67;;;5.50;99.90;;;;;;4231792;28;20048;-86
2022/11/27 06:16:23;;;;;;;12.32;2.85;;;5.50;99.90;;;;;;4231428;28;20043;-86
2022/11/27 06:18:25;;;;;;;9.55;2.60;;;5.50;99.90;;;;;;4213522;28;20043;-85
2022/11/27 06:20:26;;;;;;;8.18;2.45;;;5.50;99.90;;;;;;4213958;28;20055;-86
2022/11/27 06:22:27;;;;;;;12.50;2.35;;;5.50;99.90;;;;;;4197017;28;20131;-86
2022/11/27 06:24:29;;;;;;;7.68;2.10;;;5.50;99.90;;;;;;4213492;28;20071;-86
2022/11/27 06:26:31;;;;;;;6.18;2.97;;;5.50;99.90;;;;;;4231874;28;20047;-86
2022/11/27 06:28:33;;;;;;;6.50;2.17;;;5.60;99.90;;;;;;4231873;28;20051;-86
2022/11/27 06:30:33;;;;;;;5.68;2.40;;;5.60;99.90;;;;;;4231975;28;20392;-86
2022/11/27 06:32:35;;;;;;;5.03;2.10;;;5.60;99.90;;;;;;4231876;28;20151;-86
2022/11/27 06:34:36;;;;;;;6.68;3.13;;;5.80;99.90;;;;;;4213710;28;20055;-86
2022/11/27 06:36:41;;;;;;;12.77;2.92;;;5.60;99.90;;;;;;4213300;28;20407;-86
2022/11/27 06:38:44;;;;;;;10.63;3.08;;;5.70;99.90;;;;;;4213738;28;20044;-86
2022/11/27 06:40:44;;;;;;;6.85;2.53;;;5.70;99.90;;;;;;4231822;28;20052;-86
2022/11/27 06:42:46;;;;;;;7.97;2.55;;;5.70;99.90;;;;;;4213818;28;20051;-85
2022/11/27 06:44:47;;;;;;;7.75;2.72;;;5.70;99.90;;;;;;4213787;28;20492;-85
2022/11/27 06:46:48;;;;;;;5.72;1.90;;;6.00;99.90;;;;;;4196362;28;20143;-85
2022/11/27 06:48:51;;;;;;;11.35;2.40;;;5.80;99.90;;;;;;4232256;28;20035;-85
2022/11/27 06:50:52;;;;;;;5.43;1.75;;;5.80;99.90;;;;;;4231492;28;20067;-85
2022/11/27 06:52:53;;;;;;;8.60;2.70;;;5.90;99.90;;;;;;4231941;28;20104;-85
2022/11/27 06:54:54;;;;;;;6.97;2.20;;;5.80;99.90;;;;;;4231639;28;20036;-86
2022/11/27 06:56:57;;;;;;;9.93;2.83;;;5.80;99.90;;;;;;4231858;28;20044;-84
2022/11/27 06:58:59;;;;;;;8.57;2.10;;;5.90;99.90;;;;;;4231879;28;20065;-86
2022/11/27 07:01:03;;;;;;;9.55;2.03;;;5.90;99.90;;;;;;4216075;28;20555;-86
2022/11/27 07:03:05;;;;;;;8.32;2.05;;;5.90;99.90;;;;;;4235682;28;20044;-86
2022/11/27 07:05:06;;;;;;;9.48;2.53;;;5.90;99.90;;;;;;4203121;28;20044;-87
2022/11/27 07:07:08;;;;;;;8.95;3.40;;;5.90;99.90;;;;;;4249793;28;20503;-87
2022/11/27 07:09:09;;;;;;;8.32;2.50;;;5.90;99.90;;;;;;4240554;28;20047;-86
2022/11/27 07:11:13;;;;;;;5.65;2.13;;;5.90;99.90;;;;;;4237736;28;20555;-87
2022/11/27 07:13:15;;;;;;;7.32;2.40;;;5.90;99.90;;;;;;4238752;28;20054;-87
2022/11/27 07:15:16;;;;;;;8.35;1.77;;;5.90;99.90;;;;;;4220274;28;20079;-87
2022/11/27 07:17:17;;;;;;;14.20;2.97;;;5.90;99.90;;;;;;4237945;28;20035;-86
2022/11/27 07:19:18;;;;;;;9.65;2.90;;;5.90;99.90;;;;;;4231881;28;20048;-87
2022/11/27 07:21:19;;;;;;;5.60;1.92;;;5.90;99.90;;;;;;4196668;28;20051;-86
2022/11/27 07:23:20;;;;;;;10.88;2.55;;;5.90;99.90;;;;;;4196072;28;20048;-85
2022/11/27 07:25:23;;;;;;;7.97;2.08;;;5.90;99.90;;;;;;4213381;28;20093;-86
2022/11/27 07:27:25;;;;;;;8.10;2.05;;;5.90;99.90;;;;;;4213316;28;20052;-86
2022/11/27 07:29:27;;;;;;;6.72;2.15;;;5.90;99.90;;;;;;4214077;28;20055;-86
2022/11/27 07:31:29;;;;;;;8.60;2.60;;;5.90;99.90;;;;;;4199775;28;20045;-86
2022/11/27 07:33:30;;;;;;;10.23;2.67;;;5.90;99.90;;;;;;4234487;28;20038;-86
2022/11/27 07:35:31;;;;;;;9.38;3.20;;;5.90;99.90;;;;;;4216449;28;20044;-86
2022/11/27 07:37:32;;;;;;;4.47;2.20;;;5.90;99.90;;;;;;4199494;28;20135;-86
2022/11/27 07:39:33;;;;;;;4.65;1.80;;;5.90;99.90;;;;;;4215762;28;20496;-86
2022/11/27 07:41:34;;;;;;;12.30;2.72;;;5.90;99.90;;;;;;4234405;28;20036;-86
2022/11/27 07:43:36;;;;;;;9.23;2.67;;;5.70;99.90;;;;;;4216045;28;20043;-86
2022/11/27 07:45:36;;;;;;;7.65;2.80;;;5.90;99.90;;;;;;4234345;28;20040;-86
2022/11/27 07:47:38;;;;;;;7.65;2.28;;;5.90;99.90;;;;;;4199301;28;20202;-86
2022/11/27 07:49:40;;;;;;;9.45;2.38;;;5.90;99.90;;;;;;4216193;28;20196;-87
2022/11/27 07:51:42;;;;;;;8.85;2.88;;;5.90;99.90;;;;;;4216072;28;20084;-86
2022/11/27 07:53:43;;;;;;;7.05;2.13;;;5.90;99.90;;;;;;4235256;28;20495;-85
2022/11/27 07:55:43;;;;;;;5.28;2.22;;;5.90;99.90;;;;;;4200083;28;20048;-85
2022/11/27 07:57:44;;;;;;;8.80;3.38;;;5.90;99.90;;;;;;4215828;28;20044;-85
2022/11/27 07:59:45;;;;;;;7.78;2.20;;;5.90;99.90;;;;;;4216662;28;20052;-86
2022/11/27 08:01:46;;;;;;;8.23;3.15;;;5.90;99.90;;;;;;4229084;28;20040;-85
2022/11/27 08:03:48;;;;;;;6.75;2.67;;;5.90;99.90;;;;;;4216967;28;20131;-85
2022/11/27 08:05:48;;;;;;;4.85;2.30;;;5.90;99.90;;;;;;4235406;28;20503;-86
2022/11/27 08:07:50;;;;;;;11.80;2.78;;;6.50;99.90;;;;;;4200963;28;20055;-86
2022/11/27 08:09:51;;;;;;;17.73;3.80;;;6.00;99.90;;;;;;4217876;28;20048;-87
2022/11/27 08:11:52;;;;;;;8.20;2.20;;;6.00;99.90;;;;;;4235091;28;20086;-86
2022/11/27 08:13:57;;;;;;;10.77;3.38;;;6.00;99.90;;;;;;4235156;28;20043;-86
2022/11/27 08:15:58;;;;;;;8.65;2.60;;;6.10;99.90;;;;;;4234613;28;20130;-86
2022/11/27 08:18:00;;;;;;;6.97;2.40;;;6.10;99.90;;;;;;4234499;28;20063;-86
2022/11/27 08:20:02;;;;;;;9.32;2.70;;;6.10;99.90;;;;;;4216057;28;20044;-86
2022/11/27 08:22:05;;;;;;;9.52;2.40;;;6.00;99.90;;;;;;4198671;28;20055;-87
2022/11/27 08:24:06;;;;;;;12.00;2.80;;;6.10;99.90;;;;;;4234186;28;20515;-86
2022/11/27 08:26:09;;;;;;;6.60;2.58;;;6.10;99.90;;;;;;4198994;28;20048;-86
2022/11/27 08:28:09;;;;;;;8.23;2.75;;;6.10;99.90;;;;;;4234276;28;20048;-87
2022/11/27 08:30:10;;;;;;;6.47;2.80;;;6.10;99.90;;;;;;4200435;28;20040;-85
2022/11/27 08:32:13;;;;;;;11.05;3.42;;;6.10;99.90;;;;;;4236320;28;20141;-86
2022/11/27 08:34:15;;;;;;;5.07;3.00;;;6.20;99.90;;;;;;4239120;28;20496;-85
2022/11/27 08:36:15;;;;;;;12.43;4.13;;;6.10;99.90;;;;;;4221807;28;20048;-86
2022/11/27 08:38:17;;;;;;;7.32;3.00;;;6.10;99.90;;;;;;4241926;28;20062;-85
2022/11/27 08:40:18;;;;;;;6.60;2.50;;;6.10;99.90;;;;;;4240715;28;20075;-86
2022/11/27 08:42:19;;;;;;;13.55;3.88;;;6.10;99.90;;;;;;4198193;28;20044;-85
2022/11/27 08:44:20;;;;;;;7.68;2.72;;;6.00;99.90;;;;;;4239664;27;20047;-86
2022/11/27 08:46:21;;;;;;;11.45;2.78;;;6.10;99.90;;;;;;4227211;28;20109;-87
2022/11/27 08:48:24;;;;;;;10.45;3.20;;;6.40;99.90;;;;;;4232993;28;20051;-84
2022/11/27 08:50:25;;;;;;;8.07;2.15;;;6.10;99.90;;;;;;4215061;28;20063;-84
2022/11/27 08:52:26;;;;;;;10.75;3.88;;;6.30;99.90;;;;;;4216730;28;20059;-85
2022/11/27 08:54:26;;;;;;;13.43;3.05;;;6.20;99.90;;;;;;4199014;28;20052;-85
2022/11/27 08:56:28;;;;;;;8.50;2.67;;;6.10;99.90;;;;;;4215201;28;20052;-86
2022/11/27 08:58:29;;;;;;;7.15;2.65;;;6.10;99.90;;;;;;4215000;28;20040;-86
2022/11/27 09:00:32;;;;;;;6.32;2.95;;;6.60;99.90;;;;;;4213929;28;20040;-84
2022/11/27 09:02:34;;;;;;;7.68;2.70;;;6.10;99.90;;;;;;4183347;28;20055;-84
2022/11/27 09:04:35;;;;;;;6.40;3.00;;;6.10;99.90;;;;;;4199313;28;20055;-85
2022/11/27 09:06:36;;;;;;;6.00;2.92;;;6.10;99.90;;;;;;4197867;28;20166;-85
2022/11/27 09:08:39;;;;;;;12.25;4.07;;;6.10;99.90;;;;;;4186036;28;20074;-85
2022/11/27 09:10:41;;;;;;;8.98;3.10;;;6.10;99.90;;;;;;4215107;28;20040;-85
2022/11/27 09:12:43;;;;;;;9.73;2.97;;;6.10;99.90;;;;;;4215919;28;20094;-85
2022/11/27 09:14:44;;;;;;;12.13;2.83;;;6.20;99.90;;;;;;4215326;28;20108;-86
2022/11/27 09:16:44;;;;;;;8.88;2.70;;;6.20;99.90;;;;;;4216062;28;20040;-86
2022/11/27 09:18:47;;;;;;;7.28;2.78;;;6.20;99.90;;;;;;4214781;28;20480;-86
2022/11/27 09:21:08;;;;;;;9.48;3.00;;;6.20;99.90;;;;;;4197832;28;20128;-85
2022/11/27 09:23:09;;;;;;;10.38;3.20;;;6.20;99.90;;;;;;4215770;28;20610;-85
2022/11/27 09:25:11;;;;;;;9.38;3.40;;;6.20;99.90;;;;;;4215783;28;20396;-86
2022/11/27 09:27:12;;;;;;;9.02;3.42;;;6.30;99.90;;;;;;4215316;28;20036;-86
2022/11/27 09:29:13;;;;;;;9.75;3.00;;;6.20;99.90;;;;;;4215000;28;20097;-86
2022/11/27 09:31:14;;;;;;;10.50;3.53;;;6.20;99.90;;;;;;4197531;28;20051;-86
2022/11/27 09:33:15;;;;;;;8.52;3.17;;;6.20;99.90;;;;;;4197699;28;20424;-86
2022/11/27 09:35:24;;;;;;;7.97;2.95;;;6.20;99.90;;;;;;4217826;28;20055;-87
2022/11/27 09:37:25;;;;;;;11.48;3.60;;;6.20;99.90;;;;;;4216052;28;20051;-86
2022/11/27 09:39:32;;;;;;;10.10;3.20;;;6.20;99.90;;;;;;4215832;28;20043;-86
2022/11/27 09:41:37;;;;;;;10.65;3.17;;;6.10;99.90;;;;;;4215218;28;20079;-86
2022/11/27 09:43:55;;;;;;;8.15;3.13;;;6.10;99.90;;;;;;4214280;28;20549;-86
2022/11/27 09:46:07;;;;;;;15.77;3.65;;;6.10;99.90;;;;;;4197448;28;20079;-86
2022/11/27 09:48:16;;;;;;;7.22;2.97;;;6.10;99.90;;;;;;4214324;28;20076;-87
2022/11/27 09:50:23;;;;;;;8.93;2.90;;;6.10;99.90;;;;;;4224985;27;20111;-86
2022/11/27 09:52:38;;;;;;;9.07;3.65;;;6.10;99.90;;;;;;4231032;28;20511;-86
2022/11/27 09:54:54;;;;;;;11.60;4.47;;;6.10;99.90;;;;;;4213852;28;20507;-86
2022/11/27 09:56:57;;;;;;;6.93;2.97;;;6.10;99.90;;;;;;4214298;28;20083;-86
2022/11/27 09:58:59;;;;;;;7.95;4.00;;;6.00;99.90;;;;;;4249494;27;20118;-86
2022/11/27 10:01:00;;;;;;;10.48;3.78;;;6.00;99.90;;;;;;4230770;28;20046;-87
2022/11/27 10:03:01;;;;;;;9.85;3.33;;;6.00;99.90;;;;;;4214533;28;20048;-86
2022/11/27 10:05:15;;;;;;;9.93;3.30;;;6.10;99.90;;;;;;4215065;28;20040;-86
2022/11/27 10:07:46;;;;;;;9.23;3.95;;;6.00;99.90;;;;;;4232174;28;20048;-86
2022/11/27 10:10:06;;;;;;;10.05;3.60;;;6.00;99.90;;;;;;4231602;28;20040;-86
2022/11/27 10:12:25;;;;;;;11.65;3.63;;;6.00;99.90;;;;;;4213784;28;20056;-86
2022/11/27 10:14:56;;;;;;;9.27;4.78;;;6.00;99.90;;;;;;4231767;28;20407;-86
2022/11/27 10:17:12;;;;;;;15.52;3.45;;;6.00;99.90;;;;;;4170553;28;20132;-86
2022/11/27 10:19:48;;;;;;;11.35;4.93;;;6.00;99.90;;;;;;4214126;28;20044;-86
2022/11/27 10:22:01;;;;;;;13.55;4.55;;;5.90;99.90;;;;;;4203065;28;20167;-86
2022/11/27 10:24:12;;;;;;;13.13;3.28;;;5.90;99.90;;;;;;4197210;28;20053;-86
2022/11/27 10:26:30;;;;;;;9.55;2.70;;;5.90;99.90;;;;;;4231540;28;20510;-85
2022/11/27 10:28:51;;;;;;;7.25;3.63;;;5.90;99.90;;;;;;4231817;28;20500;-87
2022/11/27 10:31:01;;;;;;;8.80;3.60;;;5.90;99.90;;;;;;4231925;28;20054;-87
2022/11/27 10:33:08;;;;;;;7.55;3.20;;;5.90;99.90;;;;;;4213545;28;20089;-87
2022/11/27 10:35:16;;;;;;;13.35;3.92;;;5.80;99.90;;;;;;4214414;28;20048;-89
2022/11/27 10:37:23;;;;;;;8.95;3.42;;;5.80;99.90;;;;;;4231739;28;20047;-88
2022/11/27 10:39:41;;;;;;;13.45;3.78;;;5.80;99.90;;;;;;4240187;27;20126;-85
2022/11/27 10:41:52;;;;;;;14.97;6.30;;;5.90;99.90;;;;;;4198660;28;20048;-85
2022/11/27 10:43:56;;;;;;;10.20;3.55;;;5.80;99.90;;;;;;4214540;28;20412;-84
2022/11/27 10:46:25;;;;;;;15.32;4.03;;;5.80;99.90;;;;;;4198577;28;20064;-85
2022/11/27 10:48:28;;;;;;;9.05;4.28;;;5.80;99.90;;;;;;4213680;28;20052;-85
2022/11/27 10:50:29;;;;;;;10.05;5.03;;;5.80;99.90;;;;;;4213771;28;20052;-85
2022/11/27 10:52:29;;;;;;;32.65;9.20;;;5.80;99.90;;;;;;4215335;28;20126;-86